createdAt,value
2019-05-22T00:00:48.820Z,11.10
2019-05-22T00:03:19.278Z,11.10
2019-05-22T00:05:50.190Z,11.10
2019-05-22T00:08:21.616Z,11.10
2019-05-22T00:10:53.768Z,11.10
2019-05-22T00:13:25.377Z,11.10
2019-05-22T00:15:56.917Z,11.00
2019-05-22T00:18:28.101Z,11.10
2019-05-22T00:20:57.033Z,11.00
2019-05-22T00:23:27.390Z,11.00
2019-05-22T00:25:57.934Z,11.00
2019-05-22T00:28:28.094Z,11.10
2019-05-22T00:30:59.077Z,11.10
2019-05-22T00:33:29.613Z,11.10
2019-05-22T00:36:00.619Z,11.10
2019-05-22T00:38:29.770Z,11.10
2019-05-22T00:41:03.110Z,11.10
2019-05-22T00:43:34.529Z,11.10
2019-05-22T00:46:05.088Z,11.10
2019-05-22T00:48:35.839Z,11.10
2019-05-22T00:51:27.538Z,11.10
2019-05-22T00:53:59.826Z,11.00
2019-05-22T00:56:47.774Z,11.00
2019-05-22T00:59:29.082Z,11.00
2019-05-22T01:02:03.054Z,11.00
2019-05-22T01:04:35.031Z,11.00
2019-05-22T01:07:07.602Z,11.00
2019-05-22T01:09:39.579Z,11.00
2019-05-22T01:12:18.898Z,11.00
2019-05-22T01:14:50.351Z,11.00
2019-05-22T01:17:21.402Z,11.00
2019-05-22T01:19:54.507Z,10.90
2019-05-22T01:22:26.372Z,10.90
2019-05-22T01:24:57.187Z,10.90
2019-05-22T01:27:27.431Z,10.90
2019-05-22T01:29:57.415Z,10.90
2019-05-22T01:32:37.572Z,10.80
2019-05-22T01:35:09.291Z,10.90
2019-05-22T01:37:40.182Z,10.90
2019-05-22T01:40:13.953Z,10.80
2019-05-22T01:42:46.044Z,10.80
2019-05-22T01:45:16.494Z,10.70
2019-05-22T01:47:48.990Z,10.70
2019-05-22T01:50:41.696Z,10.70
2019-05-22T01:53:13.178Z,10.70
2019-05-22T01:55:44.413Z,10.60
2019-05-22T01:58:15.745Z,10.60
2019-05-22T02:00:48.996Z,10.60
2019-05-22T02:03:20.026Z,10.60
2019-05-22T02:05:49.595Z,10.60
2019-05-22T02:08:20.683Z,10.60
2019-05-22T02:10:52.628Z,10.60
2019-05-22T02:13:25.684Z,10.60
2019-05-22T02:15:55.638Z,10.60
2019-05-22T02:18:27.449Z,10.60
2019-05-22T02:20:57.825Z,10.60
2019-05-22T02:23:27.227Z,10.60
2019-05-22T02:25:57.666Z,10.50
2019-05-22T02:28:27.121Z,10.50
2019-05-22T02:30:56.594Z,10.50
2019-05-22T02:33:27.029Z,10.50
2019-05-22T02:35:56.328Z,10.50
2019-05-22T02:38:26.771Z,10.50
2019-05-22T02:40:59.229Z,10.50
2019-05-22T02:43:28.855Z,10.40
2019-05-22T02:45:59.301Z,10.50
2019-05-22T02:48:30.324Z,10.50
2019-05-22T02:50:59.694Z,10.50
2019-05-22T02:53:29.699Z,10.50
2019-05-22T02:55:59.650Z,10.50
2019-05-22T02:58:29.189Z,10.50
2019-05-22T03:01:04.972Z,10.50
2019-05-22T03:03:35.405Z,10.50
2019-05-22T03:06:12.530Z,10.50
2019-05-22T03:09:00.797Z,10.50
2019-05-22T03:11:37.135Z,10.50
2019-05-22T03:14:09.113Z,10.50
2019-05-22T03:16:51.547Z,10.50
2019-05-22T03:19:42.616Z,10.50
2019-05-22T03:22:24.187Z,10.50
2019-05-22T03:24:53.443Z,10.50
2019-05-22T03:27:41.891Z,10.50
2019-05-22T03:30:30.233Z,10.50
2019-05-22T03:33:02.029Z,10.50
2019-05-22T03:35:34.683Z,10.50
2019-05-22T03:38:04.844Z,10.50
2019-05-22T03:40:34.624Z,10.50
2019-05-22T03:43:14.958Z,10.50
2019-05-22T03:45:44.740Z,10.50
2019-05-22T03:48:15.063Z,10.50
2019-05-22T03:50:44.454Z,10.50
2019-05-22T03:53:16.985Z,10.50
2019-05-22T03:55:48.528Z,10.50
2019-05-22T03:58:18.628Z,10.50
2019-05-22T04:00:51.726Z,10.50
2019-05-22T04:03:23.175Z,10.50
2019-05-22T04:05:54.216Z,10.50
2019-05-22T04:08:26.531Z,10.50
2019-05-22T04:11:05.531Z,10.50
2019-05-22T04:13:35.870Z,10.50
2019-05-22T04:16:07.603Z,10.40
2019-05-22T04:18:39.027Z,10.50
2019-05-22T04:21:08.977Z,10.40
2019-05-22T04:23:39.961Z,10.40
2019-05-22T04:26:11.111Z,10.50
2019-05-22T04:28:52.195Z,10.40
2019-05-22T04:31:30.415Z,10.40
2019-05-22T04:34:00.519Z,10.50
2019-05-22T04:36:32.263Z,10.50
2019-05-22T04:39:05.546Z,10.50
2019-05-22T04:41:35.466Z,10.50
2019-05-22T04:44:05.910Z,10.50
2019-05-22T04:46:35.912Z,10.50
2019-05-22T04:49:07.735Z,10.50
2019-05-22T04:51:37.059Z,10.50
2019-05-22T04:54:06.448Z,10.50
2019-05-22T04:56:36.461Z,10.50
2019-05-22T04:59:06.779Z,10.50
2019-05-22T05:01:37.235Z,10.50
2019-05-22T05:04:06.930Z,10.50
2019-05-22T05:06:37.563Z,10.60
2019-05-22T05:09:09.072Z,10.60
2019-05-22T05:11:40.393Z,10.60
2019-05-22T05:14:09.742Z,10.60
2019-05-22T05:16:39.129Z,10.70
2019-05-22T05:19:08.714Z,10.70
2019-05-22T05:21:38.403Z,10.60
2019-05-22T05:24:07.890Z,10.70
2019-05-22T05:26:38.394Z,10.70
2019-05-22T05:29:10.099Z,10.70
2019-05-22T05:31:40.135Z,10.70
2019-05-22T05:34:16.233Z,10.80
2019-05-22T05:36:46.596Z,10.70
2019-05-22T05:39:36.823Z,10.80
2019-05-22T05:42:06.297Z,10.70
2019-05-22T05:44:36.540Z,10.70
2019-05-22T05:47:07.183Z,10.80
2019-05-22T05:49:35.769Z,10.80
2019-05-22T05:52:08.205Z,10.80
2019-05-22T05:54:37.761Z,10.80
2019-05-22T05:57:34.244Z,10.80
2019-05-22T06:00:05.729Z,10.80
2019-05-22T06:02:34.283Z,10.80
2019-05-22T06:05:04.544Z,10.90
2019-05-22T06:07:34.823Z,10.90
2019-05-22T06:10:27.778Z,10.90
2019-05-22T06:12:57.629Z,10.90
2019-05-22T06:15:47.483Z,10.90
2019-05-22T06:18:34.455Z,10.90
2019-05-22T06:21:06.073Z,11.00
2019-05-22T06:23:43.185Z,11.00
2019-05-22T06:26:21.684Z,11.00
2019-05-22T06:28:52.813Z,11.00
2019-05-22T06:31:38.213Z,11.00
2019-05-22T06:34:08.414Z,11.10
2019-05-22T06:36:37.753Z,11.10
2019-05-22T06:39:09.870Z,11.10
2019-05-22T06:41:41.565Z,11.20
2019-05-22T06:44:33.267Z,11.30
2019-05-22T06:47:02.972Z,11.40
2019-05-22T06:49:35.287Z,11.40
2019-05-22T06:52:07.138Z,11.50
2019-05-22T06:54:37.791Z,11.50
2019-05-22T06:57:13.878Z,11.50
2019-05-22T06:59:43.536Z,11.50
2019-05-22T07:02:15.619Z,11.50
2019-05-22T07:04:46.194Z,11.60
2019-05-22T07:07:17.361Z,11.60
2019-05-22T07:09:46.279Z,11.60
2019-05-22T07:12:18.156Z,11.60
2019-05-22T07:15:06.945Z,11.50
2019-05-22T07:17:39.696Z,11.60
2019-05-22T07:20:11.101Z,11.70
2019-05-22T07:22:41.255Z,11.70
2019-05-22T07:25:11.852Z,11.60
2019-05-22T07:27:42.108Z,11.60
2019-05-22T07:30:12.089Z,11.70
2019-05-22T07:32:43.569Z,11.70
2019-05-22T07:35:13.033Z,11.80
2019-05-22T07:37:55.560Z,11.90
2019-05-22T07:40:25.420Z,11.90
2019-05-22T07:42:54.783Z,12.00
2019-05-22T07:45:26.962Z,12.10
2019-05-22T07:47:57.180Z,12.20
2019-05-22T07:50:31.082Z,12.30
2019-05-22T07:53:01.437Z,12.50
2019-05-22T07:55:33.705Z,12.60
2019-05-22T07:58:13.032Z,12.60
2019-05-22T08:00:57.355Z,12.80
2019-05-22T08:03:28.270Z,12.90
2019-05-22T08:05:58.368Z,13.00
2019-05-22T08:08:29.723Z,13.10
2019-05-22T08:10:59.321Z,13.20
2019-05-22T08:13:30.530Z,13.30
2019-05-22T08:15:59.943Z,13.50
2019-05-22T08:18:31.049Z,13.50
2019-05-22T08:21:00.536Z,13.50
2019-05-22T08:23:30.345Z,13.60
2019-05-22T08:26:00.069Z,13.80
2019-05-22T08:28:31.755Z,13.90
2019-05-22T08:31:02.859Z,13.90
2019-05-22T08:33:34.295Z,14.10
2019-05-22T08:36:04.821Z,14.10
2019-05-22T08:38:36.731Z,14.20
2019-05-22T08:41:08.509Z,14.20
2019-05-22T08:44:11.486Z,14.20
2019-05-22T08:46:16.168Z,14.50
2019-05-22T08:48:48.670Z,15.00
2019-05-22T08:51:17.232Z,15.50
2019-05-22T08:53:48.638Z,15.50
2019-05-22T08:56:18.322Z,15.60
2019-05-22T08:58:48.454Z,15.40
2019-05-22T09:01:17.850Z,15.30
2019-05-22T09:03:47.435Z,15.30
2019-05-22T09:06:16.759Z,15.40
2019-05-22T09:08:46.554Z,15.60
2019-05-22T09:11:16.061Z,15.30
2019-05-22T09:13:45.776Z,15.30
2019-05-22T09:16:16.633Z,15.60
2019-05-22T09:18:46.392Z,16.30
2019-05-22T09:21:16.499Z,16.50
2019-05-22T09:23:46.543Z,16.60
2019-05-22T09:26:18.785Z,16.80
2019-05-22T09:28:48.159Z,16.70
2019-05-22T09:31:18.344Z,16.40
2019-05-22T09:33:48.170Z,16.20
2019-05-22T09:36:17.559Z,16.20
2019-05-22T09:38:46.925Z,16.40
2019-05-22T09:41:16.400Z,16.70
2019-05-22T09:43:45.768Z,17.10
2019-05-22T09:46:15.759Z,17.50
2019-05-22T09:48:45.134Z,17.60
2019-05-22T09:51:14.447Z,17.30
2019-05-22T09:53:44.404Z,17.00
2019-05-22T09:56:13.898Z,16.90
2019-05-22T09:58:43.694Z,17.20
2019-05-22T10:01:14.357Z,17.50
2019-05-22T10:03:43.808Z,18.10
2019-05-22T10:06:14.398Z,18.80
2019-05-22T10:08:44.937Z,19.10
2019-05-22T10:11:14.900Z,19.10
2019-05-22T10:13:44.634Z,18.90
2019-05-22T10:16:14.886Z,19.00
2019-05-22T10:18:44.821Z,18.90
2019-05-22T10:21:15.236Z,19.20
2019-05-22T10:23:45.395Z,19.30
2019-05-22T10:26:15.750Z,19.60
2019-05-22T10:28:46.566Z,20.00
2019-05-22T10:31:17.816Z,20.10
2019-05-22T10:33:47.362Z,19.90
2019-05-22T10:36:17.128Z,20.10
2019-05-22T10:38:46.525Z,20.40
2019-05-22T10:41:18.030Z,20.80
2019-05-22T10:43:47.672Z,21.10
2019-05-22T10:46:21.083Z,21.30
2019-05-22T10:48:58.402Z,21.20
2019-05-22T10:51:28.074Z,21.00
2019-05-22T10:54:00.533Z,21.00
2019-05-22T10:56:31.580Z,21.10
2019-05-22T10:59:01.832Z,20.70
2019-05-22T11:01:31.655Z,20.90
2019-05-22T11:04:01.768Z,21.20
2019-05-22T11:06:31.393Z,21.10
2019-05-22T11:09:00.996Z,21.10
2019-05-22T11:11:31.832Z,21.40
2019-05-22T11:14:02.318Z,20.90
2019-05-22T11:16:31.795Z,20.50
2019-05-22T11:19:02.559Z,20.70
2019-05-22T11:21:32.878Z,20.80
2019-05-22T11:24:02.176Z,21.20
2019-05-22T11:26:31.878Z,21.50
2019-05-22T11:29:01.395Z,21.50
2019-05-22T11:31:31.159Z,21.80
2019-05-22T11:34:00.766Z,21.70
2019-05-22T11:36:31.091Z,21.80
2019-05-22T11:39:00.405Z,22.00
2019-05-22T11:41:29.853Z,22.00
2019-05-22T11:43:59.258Z,22.70
2019-05-22T11:46:28.779Z,22.70
2019-05-22T11:48:58.084Z,23.00
2019-05-22T11:51:27.438Z,23.30
2019-05-22T11:54:08.871Z,22.80
2019-05-22T11:56:27.778Z,23.10
2019-05-22T11:58:58.836Z,23.00
2019-05-22T12:01:29.848Z,23.20
2019-05-22T12:03:59.297Z,23.20
2019-05-22T12:06:29.595Z,23.20
2019-05-22T12:08:59.426Z,23.10
2019-05-22T12:11:28.959Z,22.80
2019-05-22T12:13:58.635Z,22.70
2019-05-22T12:16:28.775Z,22.80
2019-05-22T12:18:59.112Z,23.00
2019-05-22T12:21:28.162Z,23.10
2019-05-22T12:23:57.434Z,23.30
2019-05-22T12:26:27.616Z,23.60
2019-05-22T12:32:29.652Z,24.20
2019-05-22T12:35:24.628Z,24.40
2019-05-22T12:38:34.518Z,24.70
2019-05-22T12:41:05.920Z,25.40
2019-05-22T12:43:45.253Z,24.50
2019-05-22T12:46:18.696Z,24.70
2019-05-22T12:48:48.348Z,24.50
2019-05-22T12:51:18.395Z,24.50
2019-05-22T12:53:47.711Z,24.30
2019-05-22T12:56:17.557Z,23.90
2019-05-22T12:58:47.091Z,24.10
2019-05-22T13:01:18.388Z,24.50
2019-05-22T13:03:49.180Z,24.20
2019-05-22T13:06:18.029Z,24.10
2019-05-22T13:08:47.439Z,24.00
2019-05-22T13:11:17.109Z,24.60
2019-05-22T13:13:46.622Z,24.60
2019-05-22T13:16:16.213Z,24.70
2019-05-22T13:18:45.799Z,23.90
2019-05-22T13:21:18.365Z,23.90
2019-05-22T13:23:49.423Z,23.90
2019-05-22T13:26:18.893Z,23.60
2019-05-22T13:28:48.625Z,23.10
2019-05-22T13:31:19.288Z,23.70
2019-05-22T13:33:50.108Z,24.00
2019-05-22T13:36:19.602Z,23.60
2019-05-22T13:38:49.053Z,23.10
2019-05-22T13:41:19.369Z,22.70
2019-05-22T13:43:49.604Z,22.40
2019-05-22T13:46:19.170Z,22.30
2019-05-22T13:48:48.701Z,22.20
2019-05-22T13:51:18.055Z,21.90
2019-05-22T13:53:48.209Z,21.80
2019-05-22T13:56:17.857Z,21.80
2019-05-22T13:58:47.609Z,21.80
2019-05-22T14:01:17.104Z,22.00
2019-05-22T14:03:47.295Z,22.20
2019-05-22T14:06:16.958Z,22.20
2019-05-22T14:08:46.428Z,22.60
2019-05-22T14:11:16.196Z,23.00
2019-05-22T14:13:45.636Z,23.00
2019-05-22T14:16:16.264Z,23.00
2019-05-22T14:18:45.679Z,23.30
2019-05-22T14:21:15.082Z,23.90
2019-05-22T14:23:44.372Z,24.30
2019-05-22T14:26:13.999Z,25.00
2019-05-22T14:28:44.427Z,25.40
2019-05-22T14:31:13.737Z,25.30
2019-05-22T14:33:43.415Z,25.40
2019-05-22T14:36:12.850Z,25.40
2019-05-22T14:38:42.998Z,25.70
2019-05-22T14:41:12.757Z,25.70
2019-05-22T14:43:42.126Z,25.40
2019-05-22T14:46:11.986Z,24.80
2019-05-22T14:48:41.536Z,24.10
2019-05-22T14:51:11.135Z,23.50
2019-05-22T14:53:42.565Z,22.80
2019-05-22T14:56:12.160Z,22.20
2019-05-22T14:58:43.575Z,21.60
2019-05-22T15:01:13.027Z,21.10
2019-05-22T15:03:42.493Z,20.70
2019-05-22T15:06:11.992Z,20.50
2019-05-22T15:08:41.390Z,20.20
2019-05-22T15:11:12.268Z,20.10
2019-05-22T15:13:41.954Z,19.90
2019-05-22T15:16:12.437Z,19.90
2019-05-22T15:18:42.049Z,19.90
2019-05-22T15:21:12.521Z,19.90
2019-05-22T15:23:42.228Z,19.70
2019-05-22T15:26:11.651Z,19.60
2019-05-22T15:28:40.964Z,19.30
2019-05-22T15:31:10.245Z,19.10
2019-05-22T15:33:40.386Z,19.00
2019-05-22T15:36:13.606Z,18.90
2019-05-22T15:38:44.297Z,19.00
2019-05-22T15:41:13.601Z,19.20
2019-05-22T15:43:45.063Z,19.40
2019-05-22T15:46:15.938Z,19.60
2019-05-22T15:48:47.290Z,19.70
2019-05-22T15:51:21.194Z,19.90
2019-05-22T15:53:52.091Z,19.90
2019-05-22T15:56:21.869Z,19.80
2019-05-22T15:58:53.989Z,19.80
2019-05-22T16:01:25.395Z,19.70
2019-05-22T16:03:56.223Z,19.70
2019-05-22T16:06:27.810Z,19.80
2019-05-22T16:08:57.889Z,19.70
2019-05-22T16:11:27.518Z,19.80
2019-05-22T16:14:00.325Z,19.80
2019-05-22T16:16:30.270Z,20.00
2019-05-22T16:19:03.037Z,20.10
2019-05-22T16:21:34.903Z,20.10
2019-05-22T16:24:05.417Z,20.20
2019-05-22T16:26:35.183Z,20.10
2019-05-22T16:29:06.953Z,20.10
2019-05-22T16:31:37.664Z,20.10
2019-05-22T16:34:07.492Z,20.00
2019-05-22T16:36:37.299Z,19.90
2019-05-22T16:39:09.946Z,19.80
2019-05-22T16:41:39.988Z,19.60
2019-05-22T16:44:09.771Z,19.50
2019-05-22T16:46:41.700Z,19.50
2019-05-22T16:49:12.523Z,19.50
2019-05-22T16:51:43.860Z,19.40
2019-05-22T16:54:14.388Z,19.40
2019-05-22T16:56:43.918Z,19.40
2019-05-22T16:59:13.310Z,19.40
2019-05-22T17:01:57.771Z,19.40
2019-05-22T17:04:16.007Z,19.40
2019-05-22T17:06:45.095Z,19.50
2019-05-22T17:09:16.489Z,19.50
2019-05-22T17:11:47.232Z,19.60
2019-05-22T17:14:18.853Z,19.50
2019-05-22T17:16:49.239Z,19.50
2019-05-22T17:19:27.056Z,19.50
2019-05-22T17:21:49.591Z,19.30
2019-05-22T17:24:20.008Z,19.30
2019-05-22T17:26:49.782Z,19.30
2019-05-22T17:29:19.246Z,19.20
2019-05-22T17:31:48.767Z,19.20
2019-05-22T17:34:34.456Z,19.20
2019-05-22T17:37:11.524Z,19.20
2019-05-22T17:39:45.403Z,19.10
2019-05-22T17:42:16.482Z,19.10
2019-05-22T17:44:47.857Z,19.00
2019-05-22T17:47:18.884Z,18.90
2019-05-22T17:49:49.468Z,18.80
2019-05-22T17:52:19.914Z,18.70
2019-05-22T17:54:51.216Z,18.60
2019-05-22T17:57:22.234Z,18.40
2019-05-22T17:59:52.446Z,18.30
2019-05-22T18:02:23.558Z,18.10
2019-05-22T18:04:53.611Z,18.00
2019-05-22T18:07:23.989Z,17.90
2019-05-22T18:09:53.668Z,17.80
2019-05-22T18:12:23.026Z,17.80
2019-05-22T18:14:52.428Z,17.70
2019-05-22T18:17:22.089Z,17.70
2019-05-22T18:19:51.633Z,17.60
2019-05-22T18:22:21.141Z,17.60
2019-05-22T18:24:50.535Z,17.60
2019-05-22T18:27:19.894Z,17.50
2019-05-22T18:29:49.216Z,17.50
2019-05-22T18:32:18.604Z,17.40
2019-05-22T18:34:47.976Z,17.20
2019-05-22T18:37:17.285Z,17.10
2019-05-22T18:39:47.779Z,17.10
2019-05-22T18:42:17.335Z,16.90
2019-05-22T18:44:46.672Z,16.80
2019-05-22T18:47:16.166Z,16.70
2019-05-22T18:49:45.815Z,16.60
2019-05-22T18:52:15.380Z,16.50
2019-05-22T18:54:44.674Z,16.50
2019-05-22T18:57:14.351Z,16.40
2019-05-22T18:59:43.902Z,16.40
2019-05-22T19:02:13.411Z,16.30
2019-05-22T19:04:43.096Z,16.30
2019-05-22T19:07:12.424Z,16.30
2019-05-22T19:09:41.794Z,16.20
2019-05-22T19:12:11.479Z,16.20
2019-05-22T19:14:40.779Z,16.10
2019-05-22T19:17:10.346Z,16.10
2019-05-22T19:19:40.134Z,16.00
2019-05-22T19:22:09.501Z,16.00
2019-05-22T19:24:38.901Z,15.90
2019-05-22T19:27:08.204Z,15.90
2019-05-22T19:29:37.515Z,15.80
2019-05-22T19:32:06.837Z,15.80
2019-05-22T19:34:36.606Z,15.70
2019-05-22T19:37:05.974Z,15.70
2019-05-22T19:39:35.706Z,15.70
2019-05-22T19:42:05.875Z,15.60
2019-05-22T19:44:35.530Z,15.60
2019-05-22T19:47:06.731Z,15.60
2019-05-22T19:49:36.423Z,15.50
2019-05-22T19:52:07.554Z,15.50
2019-05-22T19:54:37.853Z,15.50
2019-05-22T19:57:09.142Z,15.60
2019-05-22T19:59:38.900Z,15.70
2019-05-22T20:02:09.952Z,16.00
2019-05-22T20:04:39.650Z,16.00
2019-05-22T20:07:10.965Z,16.10
2019-05-22T20:09:40.381Z,16.10
2019-05-22T20:12:11.369Z,16.10
2019-05-22T20:14:40.727Z,16.10
2019-05-22T20:17:10.590Z,16.10
2019-05-22T20:19:40.658Z,16.10
2019-05-22T20:22:10.307Z,15.90
2019-05-22T20:24:39.853Z,15.80
2019-05-22T20:27:10.124Z,15.70
2019-05-22T20:29:42.290Z,15.50
2019-05-22T20:32:12.956Z,15.30
2019-05-22T20:34:42.532Z,15.20
2019-05-22T20:37:13.015Z,15.10
2019-05-22T20:39:42.452Z,14.90
2019-05-22T20:42:12.005Z,14.80
2019-05-22T20:44:42.389Z,14.70
2019-05-22T20:47:11.868Z,14.50
2019-05-22T20:49:44.743Z,14.40
2019-05-22T20:52:15.892Z,14.30
2019-05-22T20:54:46.947Z,14.20
2019-05-22T20:57:19.846Z,14.10
2019-05-22T20:59:47.891Z,14.00
2019-05-22T21:02:19.759Z,13.90
2019-05-22T21:04:51.289Z,13.80
2019-05-22T21:07:30.709Z,13.70
2019-05-22T21:10:03.955Z,13.60
2019-05-22T21:12:36.122Z,13.50
2019-05-22T21:15:06.894Z,13.40
2019-05-22T21:17:37.555Z,13.20
2019-05-22T21:20:09.476Z,13.10
2019-05-22T21:22:39.996Z,13.00
2019-05-22T21:25:09.864Z,13.00
2019-05-22T21:27:40.037Z,13.00
2019-05-22T21:30:11.387Z,12.90
2019-05-22T21:32:41.298Z,12.90
2019-05-22T21:35:11.310Z,12.80
2019-05-22T21:37:40.933Z,12.80
2019-05-22T21:40:11.874Z,12.80
2019-05-22T21:42:43.924Z,12.90
2019-05-22T21:45:13.653Z,12.90
2019-05-22T21:47:43.345Z,12.90
2019-05-22T21:50:13.470Z,12.90
2019-05-22T21:52:43.404Z,12.90
2019-05-22T21:55:13.812Z,12.90
2019-05-22T21:57:44.221Z,12.90
2019-05-22T22:00:26.594Z,13.00
2019-05-22T22:02:57.319Z,13.00
2019-05-22T22:05:27.579Z,12.90
2019-05-22T22:07:56.973Z,12.90
2019-05-22T22:10:26.556Z,12.90
2019-05-22T22:12:56.242Z,12.80
2019-05-22T22:15:25.803Z,12.80
2019-05-22T22:17:55.930Z,12.70
2019-05-22T22:20:25.457Z,12.60
2019-05-22T22:22:55.221Z,12.50
2019-05-22T22:25:25.274Z,12.40
2019-05-22T22:27:55.617Z,12.30
2019-05-22T22:30:26.482Z,12.20
2019-05-22T22:32:58.218Z,12.20
2019-05-22T22:35:27.847Z,12.10
2019-05-22T22:37:57.764Z,11.90
2019-05-22T22:40:28.500Z,11.90
2019-05-22T22:43:00.010Z,11.80
2019-05-22T22:45:34.774Z,11.70
2019-05-22T22:48:05.815Z,11.70
2019-05-22T22:50:36.158Z,11.60
2019-05-22T22:53:06.272Z,11.60
2019-05-22T22:55:37.930Z,11.50
2019-05-22T22:58:17.194Z,11.40
2019-05-22T23:00:44.069Z,11.40
2019-05-22T23:03:18.218Z,11.40
2019-05-22T23:05:49.271Z,11.30
2019-05-22T23:08:22.003Z,11.20
2019-05-22T23:10:51.705Z,11.20
2019-05-22T23:13:23.441Z,11.20
2019-05-22T23:15:54.462Z,11.10
2019-05-22T23:18:44.340Z,11.10
2019-05-22T23:21:16.926Z,11.10
2019-05-22T23:23:46.028Z,11.00
2019-05-22T23:26:16.059Z,11.00
2019-05-22T23:28:45.428Z,10.90
2019-05-22T23:31:15.550Z,10.90
2019-05-22T23:33:45.041Z,10.80
2019-05-22T23:36:16.189Z,10.80
2019-05-22T23:38:46.444Z,10.70
2019-05-22T23:41:16.000Z,10.70
2019-05-22T23:43:46.270Z,10.60
2019-05-22T23:46:16.961Z,10.60
2019-05-22T23:48:46.726Z,10.60
2019-05-22T23:51:16.192Z,10.50
2019-05-22T23:53:48.530Z,10.50
2019-05-22T23:56:17.826Z,10.40
2019-05-22T23:58:52.757Z,10.40
